Current | Forecast
Updated: 11:00 PM CET on February 18, 2018
Observed at Reus, Spain
Temperature 11°C
Humidity 62%
Dew Point 4°C
Wind NW at 4 km/h
Pressure 1018 hPa (Steady)
Conditions Clear
Visibility -
UV N/A
Clouds
Yesterday's Maximum 18°C
Yesterday's Minimum 11°C approx.
Yesterday's Heating Degree Days 7 approx.
Sunrise7:45 AM CET
Sunset6:32 PM CET
Moon Rise9:14 AM CET
Moon Set9:14 PM CET
Moon PhaseMoon Phase
Waxing Crescent
Raw METARMETAR LERS 182200Z AUTO 32002KT CAVOK 11/04 Q1018


Monday
. High: 78° F.
Tuesday
. High: 77° F.
Wednesday
. High: 78° F.
Thursday
. High: 77° F.
Friday
. High: 71° F.
Saturday
. High: 80° F.
Sunday
. High: 82° F.
Monday
. High: 80° F.

Click here for Marine Information
Scientific forecaster discussion (NWS)

Units: English | Metric

Find the Weather for any City, State or Zipcode, or Country:

U.S. State List | Severe Weather | Tropical Storms | Ski Conditions
United States | Canada | Central America | South America | Asia | Europe | Australia | Africa | Islands

Weather Underground

© Copyright 2018
The Weather Company, LLC